sensor_id;sensor_type;location;lat;lon;timestamp;pressure;altitude;pressure_sealevel;temperature;humidity
65376;BME280;51976;47.332;9.404;2023-02-04T00:01:17;93966.34;;;3.21;72.75
65376;BME280;51976;47.332;9.404;2023-02-04T00:03:42;93959.41;;;3.06;72.67
65376;BME280;51976;47.332;9.404;2023-02-04T00:06:08;93972.09;;;3.24;72.91
65376;BME280;51976;47.332;9.404;2023-02-04T00:08:33;93983.59;;;3.12;73.04
65376;BME280;51976;47.332;9.404;2023-02-04T00:10:58;93990.75;;;3.04;73.47
65376;BME280;51976;47.332;9.404;2023-02-04T00:13:24;93980.09;;;3.04;73.29
65376;BME280;51976;47.332;9.404;2023-02-04T00:15:49;93984.81;;;3.09;72.89
65376;BME280;51976;47.332;9.404;2023-02-04T00:18:14;93989.56;;;2.94;73.21
65376;BME280;51976;47.332;9.404;2023-02-04T00:20:40;93986.09;;;2.87;73.42
65376;BME280;51976;47.332;9.404;2023-02-04T00:23:05;93971.38;;;2.71;73.73
65376;BME280;51976;47.332;9.404;2023-02-04T00:25:30;93986.50;;;2.77;73.76
65376;BME280;51976;47.332;9.404;2023-02-04T00:27:56;93980.56;;;2.75;73.75
65376;BME280;51976;47.332;9.404;2023-02-04T00:30:21;93992.47;;;2.66;74.25
65376;BME280;51976;47.332;9.404;2023-02-04T00:32:46;93983.88;;;2.64;73.97
65376;BME280;51976;47.332;9.404;2023-02-04T00:35:12;93979.97;;;2.60;74.47
65376;BME280;51976;47.332;9.404;2023-02-04T00:37:37;93996.97;;;2.72;74.45
65376;BME280;51976;47.332;9.404;2023-02-04T00:40:03;93987.97;;;2.60;74.78
65376;BME280;51976;47.332;9.404;2023-02-04T00:42:28;93984.91;;;2.69;74.80
65376;BME280;51976;47.332;9.404;2023-02-04T00:44:54;93979.53;;;2.76;74.89
65376;BME280;51976;47.332;9.404;2023-02-04T00:47:19;93987.16;;;2.72;74.98
65376;BME280;51976;47.332;9.404;2023-02-04T00:49:45;93963.19;;;2.53;74.96
65376;BME280;51976;47.332;9.404;2023-02-04T00:52:10;93978.75;;;2.69;74.75
65376;BME280;51976;47.332;9.404;2023-02-04T00:54:35;93977.91;;;2.75;74.93
65376;BME280;51976;47.332;9.404;2023-02-04T00:57:01;93973.41;;;2.82;74.91
65376;BME280;51976;47.332;9.404;2023-02-04T00:59:26;93975.66;;;2.85;74.60
65376;BME280;51976;47.332;9.404;2023-02-04T01:01:51;93982.41;;;2.81;74.59
65376;BME280;51976;47.332;9.404;2023-02-04T01:04:17;93972.97;;;2.85;74.28
65376;BME280;51976;47.332;9.404;2023-02-04T01:06:42;93965.63;;;2.74;74.50
65376;BME280;51976;47.332;9.404;2023-02-04T01:09:08;93967.66;;;2.85;74.64
65376;BME280;51976;47.332;9.404;2023-02-04T01:11:34;93954.75;;;2.82;74.31
65376;BME280;51976;47.332;9.404;2023-02-04T01:14:00;93956.19;;;2.91;74.12
65376;BME280;51976;47.332;9.404;2023-02-04T01:16:26;93977.69;;;2.96;74.09
65376;BME280;51976;47.332;9.404;2023-02-04T01:18:51;93966.63;;;2.99;74.24
65376;BME280;51976;47.332;9.404;2023-02-04T01:21:20;93964.13;;;3.04;74.30
65376;BME280;51976;47.332;9.404;2023-02-04T01:23:46;93939.78;;;2.88;74.18
65376;BME280;51976;47.332;9.404;2023-02-04T01:26:14;93975.59;;;3.05;74.22
65376;BME280;51976;47.332;9.404;2023-02-04T01:28:39;93977.22;;;3.13;74.00
65376;BME280;51976;47.332;9.404;2023-02-04T01:31:04;93984.81;;;3.16;74.01
65376;BME280;51976;47.332;9.404;2023-02-04T01:33:30;93972.28;;;3.23;73.58
65376;BME280;51976;47.332;9.404;2023-02-04T01:35:55;93980.72;;;3.13;73.90
65376;BME280;51976;47.332;9.404;2023-02-04T01:38:21;93966.75;;;3.18;73.71
65376;BME280;51976;47.332;9.404;2023-02-04T01:40:46;93981.50;;;3.20;74.06
65376;BME280;51976;47.332;9.404;2023-02-04T01:43:12;93985.81;;;3.28;74.09
65376;BME280;51976;47.332;9.404;2023-02-04T01:45:37;93957.75;;;3.19;74.04
65376;BME280;51976;47.332;9.404;2023-02-04T01:48:04;93951.81;;;3.17;74.19
65376;BME280;51976;47.332;9.404;2023-02-04T01:50:30;93960.81;;;3.22;74.22
65376;BME280;51976;47.332;9.404;2023-02-04T01:52:56;93972.00;;;3.44;74.13
65376;BME280;51976;47.332;9.404;2023-02-04T01:55:25;93979.41;;;3.29;74.13
65376;BME280;51976;47.332;9.404;2023-02-04T01:57:51;93966.53;;;3.26;74.14
65376;BME280;51976;47.332;9.404;2023-02-04T02:00:26;93981.06;;;3.30;74.17
65376;BME280;51976;47.332;9.404;2023-02-04T02:02:55;93946.28;;;3.12;74.09
65376;BME280;51976;47.332;9.404;2023-02-04T02:05:34;93971.28;;;3.17;74.71
65376;BME280;51976;47.332;9.404;2023-02-04T02:08:02;93979.41;;;3.35;74.36
65376;BME280;51976;47.332;9.404;2023-02-04T02:10:29;93976.59;;;3.24;74.82
65376;BME280;51976;47.332;9.404;2023-02-04T02:12:55;93970.41;;;3.30;74.26
65376;BME280;51976;47.332;9.404;2023-02-04T02:15:22;93980.25;;;3.29;74.42
65376;BME280;51976;47.332;9.404;2023-02-04T02:17:48;93968.00;;;3.22;74.56
65376;BME280;51976;47.332;9.404;2023-02-04T02:20:15;93976.38;;;3.25;74.67
65376;BME280;51976;47.332;9.404;2023-02-04T02:22:49;93976.59;;;3.24;74.62
65376;BME280;51976;47.332;9.404;2023-02-04T02:25:18;93970.19;;;3.31;74.53
65376;BME280;51976;47.332;9.404;2023-02-04T02:27:43;93973.72;;;3.25;74.62
65376;BME280;51976;47.332;9.404;2023-02-04T02:30:10;93961.22;;;3.19;74.90
65376;BME280;51976;47.332;9.404;2023-02-04T02:32:37;93965.69;;;3.32;74.21
65376;BME280;51976;47.332;9.404;2023-02-04T02:35:04;93947.09;;;3.19;74.71
65376;BME280;51976;47.332;9.404;2023-02-04T02:37:29;93965.69;;;3.32;74.84
65376;BME280;51976;47.332;9.404;2023-02-04T02:39:55;93966.72;;;3.31;74.81
65376;BME280;51976;47.332;9.404;2023-02-04T02:42:21;93968.56;;;3.30;74.89
65376;BME280;51976;47.332;9.404;2023-02-04T02:44:47;93966.34;;;3.27;75.20
65376;BME280;51976;47.332;9.404;2023-02-04T02:47:15;93934.78;;;3.24;74.80
65376;BME280;51976;47.332;9.404;2023-02-04T02:49:42;93957.25;;;3.42;74.66
65376;BME280;51976;47.332;9.404;2023-02-04T02:52:10;93946.97;;;3.45;74.45
65376;BME280;51976;47.332;9.404;2023-02-04T02:54:36;93953.97;;;3.39;74.84
65376;BME280;51976;47.332;9.404;2023-02-04T02:57:02;93941.28;;;3.35;74.86
65376;BME280;51976;47.332;9.404;2023-02-04T02:59:27;93949.66;;;3.45;74.98
65376;BME280;51976;47.332;9.404;2023-02-04T03:01:56;93953.13;;;3.46;74.64
65376;BME280;51976;47.332;9.404;2023-02-04T03:04:23;93945.28;;;3.57;74.17
65376;BME280;51976;47.332;9.404;2023-02-04T03:06:50;93931.59;;;3.47;74.26
65376;BME280;51976;47.332;9.404;2023-02-04T03:09:17;93939.31;;;3.62;74.14
65376;BME280;51976;47.332;9.404;2023-02-04T03:11:42;93959.22;;;3.59;74.19
65376;BME280;51976;47.332;9.404;2023-02-04T03:14:08;93934.81;;;3.56;74.25
65376;BME280;51976;47.332;9.404;2023-02-04T03:16:34;93940.41;;;3.54;74.44
65376;BME280;51976;47.332;9.404;2023-02-04T03:19:03;93948.72;;;3.64;74.07
65376;BME280;51976;47.332;9.404;2023-02-04T03:21:30;93950.38;;;3.59;74.26
65376;BME280;51976;47.332;9.404;2023-02-04T03:23:56;93934.16;;;3.67;74.02
65376;BME280;51976;47.332;9.404;2023-02-04T03:26:25;93935.41;;;3.64;73.91
65376;BME280;51976;47.332;9.404;2023-02-04T03:28:52;93930.53;;;3.55;74.25
65376;BME280;51976;47.332;9.404;2023-02-04T03:31:18;93925.44;;;3.53;73.77
65376;BME280;51976;47.332;9.404;2023-02-04T03:33:43;93926.81;;;3.56;74.26
65376;BME280;51976;47.332;9.404;2023-02-04T03:36:09;93945.66;;;3.67;73.89
65376;BME280;51976;47.332;9.404;2023-02-04T03:38:34;93934.38;;;3.65;73.97
65376;BME280;51976;47.332;9.404;2023-02-04T03:41:00;93929.66;;;3.61;74.33
65376;BME280;51976;47.332;9.404;2023-02-04T03:43:25;93941.72;;;3.70;74.37
65376;BME280;51976;47.332;9.404;2023-02-04T03:45:51;93947.69;;;3.72;74.33
65376;BME280;51976;47.332;9.404;2023-02-04T03:48:16;93942.09;;;3.80;73.73
65376;BME280;51976;47.332;9.404;2023-02-04T03:50:41;93929.66;;;3.61;74.10
65376;BME280;51976;47.332;9.404;2023-02-04T03:53:07;93931.88;;;3.70;73.85
65376;BME280;51976;47.332;9.404;2023-02-04T03:55:33;93943.47;;;3.89;73.25
65376;BME280;51976;47.332;9.404;2023-02-04T03:57:58;93945.31;;;3.89;73.41
65376;BME280;51976;47.332;9.404;2023-02-04T04:00:24;93941.44;;;3.85;73.57
65376;BME280;51976;47.332;9.404;2023-02-04T04:02:49;93956.38;;;3.92;73.61
65376;BME280;51976;47.332;9.404;2023-02-04T04:05:14;93962.13;;;3.89;74.04
65376;BME280;51976;47.332;9.404;2023-02-04T04:07:40;93946.44;;;3.74;74.57
65376;BME280;51976;47.332;9.404;2023-02-04T04:10:05;93945.22;;;3.70;75.00
65376;BME280;51976;47.332;9.404;2023-02-04T04:12:31;93953.75;;;3.86;74.96
65376;BME280;51976;47.332;9.404;2023-02-04T04:14:56;93962.00;;;3.78;75.45
65376;BME280;51976;47.332;9.404;2023-02-04T04:17:22;93967.13;;;3.79;75.45
65376;BME280;51976;47.332;9.404;2023-02-04T04:19:47;93961.81;;;3.72;75.81
65376;BME280;51976;47.332;9.404;2023-02-04T04:22:13;93965.91;;;3.75;75.65
65376;BME280;51976;47.332;9.404;2023-02-04T04:24:39;93953.63;;;3.74;75.61
65376;BME280;51976;47.332;9.404;2023-02-04T04:27:04;93939.44;;;3.80;75.04
65376;BME280;51976;47.332;9.404;2023-02-04T04:29:30;93949.00;;;3.88;74.69
65376;BME280;51976;47.332;9.404;2023-02-04T04:31:55;93946.56;;;3.86;74.91
65376;BME280;51976;47.332;9.404;2023-02-04T04:34:20;93941.06;;;3.81;74.82
65376;BME280;51976;47.332;9.404;2023-02-04T04:36:46;93944.50;;;3.88;74.80
65376;BME280;51976;47.332;9.404;2023-02-04T04:39:11;93951.06;;;3.86;74.96
65376;BME280;51976;47.332;9.404;2023-02-04T04:41:37;93942.09;;;3.80;74.43
65376;BME280;51976;47.332;9.404;2023-02-04T04:44:02;93953.06;;;3.97;74.72
65376;BME280;51976;47.332;9.404;2023-02-04T04:46:28;93954.56;;;3.86;75.00
65376;BME280;51976;47.332;9.404;2023-02-04T04:48:53;93952.72;;;3.87;75.20
65376;BME280;51976;47.332;9.404;2023-02-04T04:51:18;93958.47;;;3.84;75.44
65376;BME280;51976;47.332;9.404;2023-02-04T04:53:44;93957.06;;;3.81;75.35
65376;BME280;51976;47.332;9.404;2023-02-04T04:56:09;93957.50;;;3.78;75.63
65376;BME280;51976;47.332;9.404;2023-02-04T04:58:34;93954.94;;;3.90;75.15
65376;BME280;51976;47.332;9.404;2023-02-04T05:01:00;93954.34;;;3.88;75.51
65376;BME280;51976;47.332;9.404;2023-02-04T05:03:25;93932.88;;;3.76;75.47
65376;BME280;51976;47.332;9.404;2023-02-04T05:05:51;93948.06;;;3.76;75.52
65376;BME280;51976;47.332;9.404;2023-02-04T05:08:16;93954.63;;;3.80;75.26
65376;BME280;51976;47.332;9.404;2023-02-04T05:10:43;93955.44;;;3.80;75.67
65376;BME280;51976;47.332;9.404;2023-02-04T05:13:09;93950.34;;;3.72;75.87
65376;BME280;51976;47.332;9.404;2023-02-04T05:15:34;93956.25;;;3.81;75.93
65376;BME280;51976;47.332;9.404;2023-02-04T05:18:00;93954.63;;;3.80;75.93
65376;BME280;51976;47.332;9.404;2023-02-04T05:20:26;93961.75;;;3.86;75.55
65376;BME280;51976;47.332;9.404;2023-02-04T05:22:51;93944.97;;;3.79;75.66
65376;BME280;51976;47.332;9.404;2023-02-04T05:25:16;93958.25;;;3.85;75.80
65376;BME280;51976;47.332;9.404;2023-02-04T05:27:43;93958.47;;;3.84;76.08
65376;BME280;51976;47.332;9.404;2023-02-04T05:30:09;93962.91;;;3.96;75.64
65376;BME280;51976;47.332;9.404;2023-02-04T05:32:35;93952.56;;;3.82;75.95
65376;BME280;51976;47.332;9.404;2023-02-04T05:35:01;93966.22;;;3.92;75.57
65376;BME280;51976;47.332;9.404;2023-02-04T05:37:26;93969.28;;;3.95;75.13
65376;BME280;51976;47.332;9.404;2023-02-04T05:39:51;93968.72;;;3.87;75.15
65376;BME280;51976;47.332;9.404;2023-02-04T05:42:17;93963.91;;;4.02;75.05
65376;BME280;51976;47.332;9.404;2023-02-04T05:44:42;93967.25;;;3.91;75.46
65376;BME280;51976;47.332;9.404;2023-02-04T05:47:07;93970.78;;;3.85;75.74
65376;BME280;51976;47.332;9.404;2023-02-04T05:49:33;93961.81;;;3.79;75.53
65376;BME280;51976;47.332;9.404;2023-02-04T05:51:58;93970.97;;;3.90;75.39
65376;BME280;51976;47.332;9.404;2023-02-04T05:54:24;93954.25;;;3.69;75.46
65376;BME280;51976;47.332;9.404;2023-02-04T05:56:50;93977.97;;;3.84;75.42
65376;BME280;51976;47.332;9.404;2023-02-04T05:59:16;93973.84;;;3.88;75.21
65376;BME280;51976;47.332;9.404;2023-02-04T06:01:41;93975.13;;;3.79;75.35
65376;BME280;51976;47.332;9.404;2023-02-04T06:04:07;93987.59;;;3.85;75.68
65376;BME280;51976;47.332;9.404;2023-02-04T06:06:32;93967.38;;;3.71;75.88
65376;BME280;51976;47.332;9.404;2023-02-04T06:08:57;93969.13;;;3.84;75.81
65376;BME280;51976;47.332;9.404;2023-02-04T06:11:23;93964.91;;;3.69;76.19
65376;BME280;51976;47.332;9.404;2023-02-04T06:13:48;93971.06;;;3.70;76.13
65376;BME280;51976;47.332;9.404;2023-02-04T06:16:14;93972.13;;;3.62;75.89
65376;BME280;51976;47.332;9.404;2023-02-04T06:18:39;93987.69;;;3.72;76.13
65376;BME280;51976;47.332;9.404;2023-02-04T06:21:04;93963.47;;;3.73;75.71
65376;BME280;51976;47.332;9.404;2023-02-04T06:23:31;93980.06;;;3.76;75.98
65376;BME280;51976;47.332;9.404;2023-02-04T06:25:58;93988.09;;;3.69;76.52
65376;BME280;51976;47.332;9.404;2023-02-04T06:28:24;93959.06;;;3.54;76.17
65376;BME280;51976;47.332;9.404;2023-02-04T06:30:49;93987.66;;;3.79;75.93
65376;BME280;51976;47.332;9.404;2023-02-04T06:33:15;93991.78;;;3.74;76.19
65376;BME280;51976;47.332;9.404;2023-02-04T06:35:40;93983.38;;;3.71;76.25
65376;BME280;51976;47.332;9.404;2023-02-04T06:38:05;93981.91;;;3.75;75.88
65376;BME280;51976;47.332;9.404;2023-02-04T06:40:31;93964.16;;;3.56;76.13
65376;BME280;51976;47.332;9.404;2023-02-04T06:42:56;93981.13;;;3.68;76.27
65376;BME280;51976;47.332;9.404;2023-02-04T06:45:22;93989.31;;;3.73;76.33
65376;BME280;51976;47.332;9.404;2023-02-04T06:47:47;93990.34;;;3.72;76.20
65376;BME280;51976;47.332;9.404;2023-02-04T06:50:13;93959.47;;;3.51;76.27
65376;BME280;51976;47.332;9.404;2023-02-04T06:52:44;93985.44;;;3.69;76.08
65376;BME280;51976;47.332;9.404;2023-02-04T06:55:09;93986.47;;;3.68;76.31
65376;BME280;51976;47.332;9.404;2023-02-04T06:57:34;93976.84;;;3.60;76.25
65376;BME280;51976;47.332;9.404;2023-02-04T07:00:00;93998.97;;;3.67;76.28
65376;BME280;51976;47.332;9.404;2023-02-04T07:02:25;93997.53;;;3.71;76.43
65376;BME280;51976;47.332;9.404;2023-02-04T07:04:51;93993.44;;;3.69;76.56
65376;BME280;51976;47.332;9.404;2023-02-04T07:07:16;93997.75;;;3.70;76.87
65376;BME280;51976;47.332;9.404;2023-02-04T07:09:41;94003.47;;;3.73;76.66
65376;BME280;51976;47.332;9.404;2023-02-04T07:12:07;94002.22;;;3.76;76.91
65376;BME280;51976;47.332;9.404;2023-02-04T07:14:33;93996.13;;;3.62;76.75
65376;BME280;51976;47.332;9.404;2023-02-04T07:16:58;94009.25;;;3.64;77.01
65376;BME280;51976;47.332;9.404;2023-02-04T07:19:23;94026.88;;;3.65;77.06
65376;BME280;51976;47.332;9.404;2023-02-04T07:21:49;94028.91;;;3.69;76.74
65376;BME280;51976;47.332;9.404;2023-02-04T07:24:18;94003.28;;;3.62;76.54
65376;BME280;51976;47.332;9.404;2023-02-04T07:26:43;94019.09;;;3.63;76.65
65376;BME280;51976;47.332;9.404;2023-02-04T07:29:09;94031.78;;;3.74;76.22
65376;BME280;51976;47.332;9.404;2023-02-04T07:31:34;94025.22;;;3.70;76.41
65376;BME280;51976;47.332;9.404;2023-02-04T07:34:00;94041.00;;;3.72;76.60
65376;BME280;51976;47.332;9.404;2023-02-04T07:36:25;94027.34;;;3.55;77.13
65376;BME280;51976;47.332;9.404;2023-02-04T07:38:50;94040.84;;;3.60;77.36
65376;BME280;51976;47.332;9.404;2023-02-04T07:41:16;94032.44;;;3.57;77.42
65376;BME280;51976;47.332;9.404;2023-02-04T07:43:41;94034.28;;;3.56;77.17
65376;BME280;51976;47.332;9.404;2023-02-04T07:46:06;94040.28;;;3.52;77.14
65376;BME280;51976;47.332;9.404;2023-02-04T07:48:32;94042.28;;;3.56;76.89
65376;BME280;51976;47.332;9.404;2023-02-04T07:50:58;94026.97;;;3.38;76.89
65376;BME280;51976;47.332;9.404;2023-02-04T07:53:23;94050.28;;;3.56;76.63
65376;BME280;51976;47.332;9.404;2023-02-04T07:55:48;94052.13;;;3.56;76.69
65376;BME280;51976;47.332;9.404;2023-02-04T07:58:14;94047.44;;;3.51;76.52
65376;BME280;51976;47.332;9.404;2023-02-04T08:00:39;94050.25;;;3.63;76.63
65376;BME280;51976;47.332;9.404;2023-02-04T08:03:05;94050.47;;;3.61;76.61
65376;BME280;51976;47.332;9.404;2023-02-04T08:05:30;94059.69;;;3.65;76.42
65376;BME280;51976;47.332;9.404;2023-02-04T08:07:55;94046.16;;;3.60;76.51
65376;BME280;51976;47.332;9.404;2023-02-04T08:10:22;94052.50;;;3.66;76.78
65376;BME280;51976;47.332;9.404;2023-02-04T08:12:48;94031.19;;;3.59;76.36
65376;BME280;51976;47.332;9.404;2023-02-04T08:15:13;94059.47;;;3.73;76.27
65376;BME280;51976;47.332;9.404;2023-02-04T08:17:38;94065.03;;;3.65;76.73
65376;BME280;51976;47.332;9.404;2023-02-04T08:20:04;94046.16;;;3.60;76.72
65376;BME280;51976;47.332;9.404;2023-02-04T08:22:29;94049.22;;;3.70;76.57
65376;BME280;51976;47.332;9.404;2023-02-04T08:24:54;94059.47;;;3.73;76.57
65376;BME280;51976;47.332;9.404;2023-02-04T08:27:26;94052.31;;;3.67;76.57
65376;BME280;51976;47.332;9.404;2023-02-04T08:29:51;94050.25;;;3.69;76.82
65376;BME280;51976;47.332;9.404;2023-02-04T08:32:17;94057.63;;;3.67;77.71
65376;BME280;51976;47.332;9.404;2023-02-04T08:34:43;94059.66;;;3.79;77.58
65376;BME280;51976;47.332;9.404;2023-02-04T08:37:08;94067.88;;;3.77;78.08
65376;BME280;51976;47.332;9.404;2023-02-04T08:39:33;94061.94;;;3.68;78.28
65376;BME280;51976;47.332;9.404;2023-02-04T08:41:59;94082.47;;;3.68;78.24
65376;BME280;51976;47.332;9.404;2023-02-04T08:44:24;94054.78;;;3.62;78.21
65376;BME280;51976;47.332;9.404;2023-02-04T08:46:49;94069.50;;;3.78;78.56
65376;BME280;51976;47.332;9.404;2023-02-04T08:49:15;94065.00;;;3.72;78.78
65376;BME280;51976;47.332;9.404;2023-02-04T08:51:40;94082.06;;;3.64;79.49
65376;BME280;51976;47.332;9.404;2023-02-04T08:54:06;94092.09;;;3.69;79.75
65376;BME280;51976;47.332;9.404;2023-02-04T08:56:31;94086.38;;;3.59;79.84
65376;BME280;51976;47.332;9.404;2023-02-04T08:58:56;94097.84;;;3.66;78.92
65376;BME280;51976;47.332;9.404;2023-02-04T09:01:22;94097.06;;;3.52;78.74
65376;BME280;51976;47.332;9.404;2023-02-04T09:03:47;94093.38;;;3.53;79.06
65376;BME280;51976;47.332;9.404;2023-02-04T09:06:13;94092.94;;;3.56;77.83
65376;BME280;51976;47.332;9.404;2023-02-04T09:08:38;94087.59;;;3.63;77.54
65376;BME280;51976;47.332;9.404;2023-02-04T09:11:04;94068.72;;;3.58;77.72
65376;BME280;51976;47.332;9.404;2023-02-04T09:13:30;94078.13;;;3.73;76.94
65376;BME280;51976;47.332;9.404;2023-02-04T09:15:56;94074.72;;;3.53;76.85
65376;BME280;51976;47.332;9.404;2023-02-04T09:18:23;94060.38;;;3.54;76.83
65376;BME280;51976;47.332;9.404;2023-02-04T09:20:50;94073.63;;;3.74;76.48
65376;BME280;51976;47.332;9.404;2023-02-04T09:23:16;94078.06;;;3.87;75.94
65376;BME280;51976;47.332;9.404;2023-02-04T09:25:43;94082.19;;;3.89;75.97
65376;BME280;51976;47.332;9.404;2023-02-04T09:28:09;94079.06;;;3.99;76.09
65376;BME280;51976;47.332;9.404;2023-02-04T09:30:38;94086.47;;;3.97;76.31
65376;BME280;51976;47.332;9.404;2023-02-04T09:33:03;94096.34;;;3.90;77.35
65376;BME280;51976;47.332;9.404;2023-02-04T09:35:28;94099.84;;;3.84;78.35
65376;BME280;51976;47.332;9.404;2023-02-04T09:37:54;94102.34;;;3.79;77.94
65376;BME280;51976;47.332;9.404;2023-02-04T09:40:20;94109.94;;;3.75;78.58
65376;BME280;51976;47.332;9.404;2023-02-04T09:42:47;94097.03;;;3.65;78.58
65376;BME280;51976;47.332;9.404;2023-02-04T09:45:19;94102.75;;;3.82;78.79
65376;BME280;51976;47.332;9.404;2023-02-04T09:47:46;94090.44;;;3.74;78.36
65376;BME280;51976;47.332;9.404;2023-02-04T09:50:14;94093.34;;;3.66;78.82
65376;BME280;51976;47.332;9.404;2023-02-04T09:52:40;94083.72;;;3.59;78.76
65376;BME280;51976;47.332;9.404;2023-02-04T09:55:13;94080.47;;;3.50;78.96
65376;BME280;51976;47.332;9.404;2023-02-04T09:57:39;94113.63;;;3.67;79.26
65376;BME280;51976;47.332;9.404;2023-02-04T10:00:19;94109.34;;;3.66;79.57
65376;BME280;51976;47.332;9.404;2023-02-04T10:02:45;94092.94;;;3.63;80.05
65376;BME280;51976;47.332;9.404;2023-02-04T10:05:20;94096.00;;;3.66;80.42
65376;BME280;51976;47.332;9.404;2023-02-04T10:07:49;94103.56;;;3.76;80.54
65376;BME280;51976;47.332;9.404;2023-02-04T10:10:19;94111.78;;;3.74;80.71
65376;BME280;51976;47.332;9.404;2023-02-04T10:12:48;94101.09;;;3.81;80.68
65376;BME280;51976;47.332;9.404;2023-02-04T10:15:18;94083.09;;;3.57;80.42
65376;BME280;51976;47.332;9.404;2023-02-04T10:17:50;94104.81;;;3.73;80.37
65376;BME280;51976;47.332;9.404;2023-02-04T10:20:18;94096.41;;;3.63;80.91
65376;BME280;51976;47.332;9.404;2023-02-04T10:22:46;94091.91;;;3.57;81.02
65376;BME280;51976;47.332;9.404;2023-02-04T10:25:13;94099.09;;;3.63;81.21
65376;BME280;51976;47.332;9.404;2023-02-04T10:27:53;94112.81;;;3.67;80.99
65376;BME280;51976;47.332;9.404;2023-02-04T10:30:25;94108.72;;;3.58;81.06
65376;BME280;51976;47.332;9.404;2023-02-04T10:32:52;94113.03;;;3.59;80.04
65376;BME280;51976;47.332;9.404;2023-02-04T10:35:19;94113.03;;;3.65;80.00
65376;BME280;51976;47.332;9.404;2023-02-04T10:37:45;94089.50;;;3.43;79.52
65376;BME280;51976;47.332;9.404;2023-02-04T10:40:26;94112.22;;;3.65;79.44
65376;BME280;51976;47.332;9.404;2023-02-04T10:42:51;94116.97;;;3.43;80.07
65376;BME280;51976;47.332;9.404;2023-02-04T10:45:28;94090.94;;;3.38;79.94
65376;BME280;51976;47.332;9.404;2023-02-04T10:47:55;94112.66;;;3.42;80.46
65376;BME280;51976;47.332;9.404;2023-02-04T10:50:25;94106.50;;;3.48;79.72
65376;BME280;51976;47.332;9.404;2023-02-04T10:52:53;94117.78;;;3.50;79.99
65376;BME280;51976;47.332;9.404;2023-02-04T10:55:39;94101.75;;;3.57;79.88
65376;BME280;51976;47.332;9.404;2023-02-04T10:58:07;94099.91;;;3.57;79.82
65376;BME280;51976;47.332;9.404;2023-02-04T11:00:33;94111.59;;;3.69;80.16
65376;BME280;51976;47.332;9.404;2023-02-04T11:03:04;94115.28;;;3.62;80.06
65376;BME280;51976;47.332;9.404;2023-02-04T11:05:33;94115.94;;;3.44;80.54
65376;BME280;51976;47.332;9.404;2023-02-04T11:08:00;94097.69;;;3.41;80.43
65376;BME280;51976;47.332;9.404;2023-02-04T11:10:31;94107.75;;;3.46;80.43
65376;BME280;51976;47.332;9.404;2023-02-04T11:13:01;94114.50;;;3.48;80.29
65376;BME280;51976;47.332;9.404;2023-02-04T11:15:46;94105.31;;;3.24;80.83
65376;BME280;51976;47.332;9.404;2023-02-04T11:18:27;94099.78;;;3.26;80.89
65376;BME280;51976;47.332;9.404;2023-02-04T11:20:57;94111.44;;;3.31;81.15
65376;BME280;51976;47.332;9.404;2023-02-04T11:23:31;94111.25;;;3.26;81.17
65376;BME280;51976;47.332;9.404;2023-02-04T11:26:13;94085.84;;;3.11;80.49
65376;BME280;51976;47.332;9.404;2023-02-04T11:28:47;94112.09;;;3.20;80.31
65376;BME280;51976;47.332;9.404;2023-02-04T11:34:27;94102.63;;;3.31;78.64
65376;BME280;51976;47.332;9.404;2023-02-04T11:37:18;94112.88;;;3.34;77.65
65376;BME280;51976;47.332;9.404;2023-02-04T11:39:47;94102.41;;;3.32;78.08
65376;BME280;51976;47.332;9.404;2023-02-04T11:42:26;94106.50;;;3.28;78.33
65376;BME280;51976;47.332;9.404;2023-02-04T11:44:58;94109.00;;;3.17;77.77
65376;BME280;51976;47.332;9.404;2023-02-04T11:47:25;94106.97;;;3.19;77.96
65376;BME280;51976;47.332;9.404;2023-02-04T11:49:57;94084.81;;;3.12;77.62
65376;BME280;51976;47.332;9.404;2023-02-04T11:52:24;94113.91;;;3.33;77.29
65376;BME280;51976;47.332;9.404;2023-02-04T11:54:58;94108.38;;;3.15;77.32
65376;BME280;51976;47.332;9.404;2023-02-04T11:57:25;94125.59;;;3.12;77.31
65376;BME280;51976;47.332;9.404;2023-02-04T11:59:51;94111.66;;;3.03;77.77
65376;BME280;51976;47.332;9.404;2023-02-04T12:02:19;94125.41;;;3.14;78.90
65376;BME280;51976;47.332;9.404;2023-02-04T12:04:53;94122.13;;;3.18;79.28
65376;BME280;51976;47.332;9.404;2023-02-04T12:07:23;94119.44;;;3.31;78.56
65376;BME280;51976;47.332;9.404;2023-02-04T12:09:49;94122.91;;;3.45;78.06
65376;BME280;51976;47.332;9.404;2023-02-04T12:12:23;94122.72;;;3.40;76.25
65376;BME280;51976;47.332;9.404;2023-02-04T12:14:56;94113.06;;;3.32;75.15
65376;BME280;51976;47.332;9.404;2023-02-04T12:17:22;94127.84;;;3.48;74.83
65376;BME280;51976;47.332;9.404;2023-02-04T12:19:47;94112.47;;;3.50;75.28
65376;BME280;51976;47.332;9.404;2023-02-04T12:22:12;94117.59;;;3.45;74.66
65376;BME280;51976;47.332;9.404;2023-02-04T12:24:40;94113.28;;;3.51;74.80
65376;BME280;51976;47.332;9.404;2023-02-04T12:27:05;94124.69;;;3.78;74.43
65376;BME280;51976;47.332;9.404;2023-02-04T12:29:30;94123.28;;;3.75;74.04
65376;BME280;51976;47.332;9.404;2023-02-04T12:31:56;94111.78;;;3.74;73.77
65376;BME280;51976;47.332;9.404;2023-02-04T12:34:21;94115.19;;;3.95;73.67
65376;BME280;51976;47.332;9.404;2023-02-04T12:36:47;94120.72;;;4.00;73.31
65376;BME280;51976;47.332;9.404;2023-02-04T12:39:12;94116.28;;;3.74;74.00
65376;BME280;51976;47.332;9.404;2023-02-04T12:41:37;94127.09;;;3.99;74.50
65376;BME280;51976;47.332;9.404;2023-02-04T12:44:03;94127.78;;;3.61;75.32
65376;BME280;51976;47.332;9.404;2023-02-04T12:46:28;94133.25;;;3.93;74.40
65376;BME280;51976;47.332;9.404;2023-02-04T12:48:54;94098.59;;;3.86;73.91
65376;BME280;51976;47.332;9.404;2023-02-04T12:51:19;94121.53;;;4.07;73.17
65376;BME280;51976;47.332;9.404;2023-02-04T12:53:46;94128.94;;;4.05;73.24
65376;BME280;51976;47.332;9.404;2023-02-04T12:56:12;94120.91;;;4.05;72.89
65376;BME280;51976;47.332;9.404;2023-02-04T12:58:38;94122.56;;;4.06;72.82
65376;BME280;51976;47.332;9.404;2023-02-04T13:01:03;94134.25;;;4.05;72.69
65376;BME280;51976;47.332;9.404;2023-02-04T13:03:29;94141.84;;;4.08;72.73
65376;BME280;51976;47.332;9.404;2023-02-04T13:05:54;94151.13;;;3.92;73.20
65376;BME280;51976;47.332;9.404;2023-02-04T13:08:20;94141.53;;;3.71;72.56
65376;BME280;51976;47.332;9.404;2023-02-04T13:10:45;94155.44;;;3.93;72.62